Time;durP1;ratioP1;P1;durP2;ratioP2;P2;SDS_P1;SDS_P2;PMS_P1;PMS_P2;Temp;Humidity;BMP_temperature;BMP_pressure;BME280_temperature;BME280_humidity;BME280_pressure;Samples;Min_cycle;Max_cycle;Signal;HPM_P1;HPM_P2
2022/02/15 00:02:06;;;;;;;337.20;80.80;;;;;;;;;;5121089;28;20486;-73
2022/02/15 00:04:34;;;;;;;338.52;86.55;;;;;;;;;;5121409;28;20565;-73
2022/02/15 00:07:02;;;;;;;333.30;82.83;;;;;;;;;;5121544;28;20592;-74
2022/02/15 00:09:30;;;;;;;333.50;81.70;;;;;;;;;;5121376;28;20461;-74
2022/02/15 00:12:05;;;;;;;330.35;76.20;;;;;;;;;;5121271;28;20462;-73
2022/02/15 00:14:33;;;;;;;332.33;79.70;;;;;;;;;;5122110;27;20623;-74
2022/02/15 00:17:03;;;;;;;330.17;79.80;;;;;;;;;;5121189;28;20235;-74
2022/02/15 00:19:31;;;;;;;335.95;84.13;;;;;;;;;;5101033;28;20206;-73
2022/02/15 00:21:59;;;;;;;326.13;80.10;;;;;;;;;;5120039;27;20262;-74
2022/02/15 00:24:27;;;;;;;330.07;79.20;;;;;;;;;;5121247;28;20596;-74
2022/02/15 00:26:55;;;;;;;332.20;80.78;;;;;;;;;;5120997;28;20866;-74
2022/02/15 00:29:23;;;;;;;326.85;78.50;;;;;;;;;;5121875;28;20205;-75
2022/02/15 00:31:50;;;;;;;340.50;84.17;;;;;;;;;;5121337;28;20244;-74
2022/02/15 00:34:20;;;;;;;334.50;81.93;;;;;;;;;;5120457;28;20462;-74
2022/02/15 00:36:49;;;;;;;334.87;80.77;;;;;;;;;;5120270;27;20201;-74
2022/02/15 00:39:16;;;;;;;329.07;79.10;;;;;;;;;;5120561;28;20947;-74
2022/02/15 00:41:44;;;;;;;337.85;82.75;;;;;;;;;;5119843;28;20843;-74
2022/02/15 00:44:12;;;;;;;334.20;79.85;;;;;;;;;;5121319;28;20236;-74
2022/02/15 00:46:40;;;;;;;333.97;79.30;;;;;;;;;;5119988;28;20243;-75
2022/02/15 00:49:08;;;;;;;328.63;81.25;;;;;;;;;;5118793;28;20459;-74
2022/02/15 00:51:38;;;;;;;329.63;79.68;;;;;;;;;;5120987;28;20502;-74
2022/02/15 00:54:06;;;;;;;333.88;81.35;;;;;;;;;;5119911;28;20590;-74
2022/02/15 00:56:34;;;;;;;331.05;81.53;;;;;;;;;;5119953;28;20575;-74
2022/02/15 00:59:04;;;;;;;315.10;92.20;;;;;;;;;;5120149;28;20599;-75
2022/02/15 01:01:33;;;;;;;320.45;79.20;;;;;;;;;;5119540;28;20208;-74
2022/02/15 01:04:01;;;;;;;331.15;80.07;;;;;;;;;;5120679;28;20213;-74
2022/02/15 01:06:29;;;;;;;334.27;78.80;;;;;;;;;;5119714;28;20232;-74
2022/02/15 01:09:01;;;;;;;334.73;80.13;;;;;;;;;;5118830;28;20446;-74
2022/02/15 01:11:29;;;;;;;339.50;81.50;;;;;;;;;;5120341;28;20455;-74
2022/02/15 01:13:57;;;;;;;334.55;80.70;;;;;;;;;;5119119;28;20459;-74
2022/02/15 01:16:25;;;;;;;342.00;84.68;;;;;;;;;;5118618;28;20202;-75
2022/02/15 01:18:53;;;;;;;336.37;81.70;;;;;;;;;;5120140;28;20262;-74
2022/02/15 01:21:21;;;;;;;340.40;82.73;;;;;;;;;;5119305;28;20496;-73
2022/02/15 01:23:49;;;;;;;333.50;80.00;;;;;;;;;;5120120;28;20459;-74
2022/02/15 01:26:22;;;;;;;335.10;81.87;;;;;;;;;;5119645;28;20464;-74
2022/02/15 01:28:49;;;;;;;336.33;82.20;;;;;;;;;;5118807;28;20455;-74
2022/02/15 01:31:17;;;;;;;337.47;79.93;;;;;;;;;;5118636;28;20453;-74
2022/02/15 01:33:45;;;;;;;345.70;79.73;;;;;;;;;;5120013;28;20470;-73
2022/02/15 01:36:16;;;;;;;332.55;78.50;;;;;;;;;;5119171;28;20450;-74
2022/02/15 01:38:46;;;;;;;336.47;82.50;;;;;;;;;;5119341;27;20260;-74
2022/02/15 01:41:14;;;;;;;333.47;81.53;;;;;;;;;;5118672;28;20457;-74
2022/02/15 01:43:46;;;;;;;335.27;79.63;;;;;;;;;;5118987;28;20460;-74
2022/02/15 01:46:15;;;;;;;338.43;81.03;;;;;;;;;;5118808;28;20477;-74
2022/02/15 01:48:46;;;;;;;326.97;81.13;;;;;;;;;;5118198;28;20925;-74
2022/02/15 01:51:15;;;;;;;331.38;83.70;;;;;;;;;;5118897;28;20439;-74
2022/02/15 01:53:43;;;;;;;338.27;83.23;;;;;;;;;;5119204;28;20213;-74
2022/02/15 01:56:12;;;;;;;340.70;81.20;;;;;;;;;;5115855;28;20442;-75
2022/02/15 01:58:40;;;;;;;333.97;79.20;;;;;;;;;;5118980;28;20505;-74
2022/02/15 02:01:10;;;;;;;341.23;84.57;;;;;;;;;;5119590;28;20449;-75
2022/02/15 02:03:38;;;;;;;341.87;83.27;;;;;;;;;;5119041;28;20465;-74
2022/02/15 02:06:04;;;;;;;335.17;82.07;;;;;;;;;;5118875;28;20447;-74
2022/02/15 02:08:34;;;;;;;347.20;84.27;;;;;;;;;;5118098;28;20443;-74
2022/02/15 02:11:03;;;;;;;341.77;81.97;;;;;;;;;;5118410;28;20870;-74
2022/02/15 02:13:33;;;;;;;333.73;80.37;;;;;;;;;;5118994;28;20514;-74
2022/02/15 02:16:01;;;;;;;343.43;83.67;;;;;;;;;;5118900;28;20478;-74
2022/02/15 02:18:30;;;;;;;342.53;82.87;;;;;;;;;;5118546;28;20483;-74
2022/02/15 02:21:03;;;;;;;344.80;85.43;;;;;;;;;;5118087;28;20936;-74
2022/02/15 02:23:31;;;;;;;339.77;81.07;;;;;;;;;;5118218;28;20458;-74
2022/02/15 02:25:59;;;;;;;339.00;81.97;;;;;;;;;;5119154;28;20451;-74
2022/02/15 02:28:27;;;;;;;347.50;88.33;;;;;;;;;;5118001;28;20466;-74
2022/02/15 02:30:55;;;;;;;344.80;84.07;;;;;;;;;;5119031;28;20519;-74
2022/02/15 02:33:23;;;;;;;339.20;85.20;;;;;;;;;;5118563;28;20451;-74
2022/02/15 02:36:00;;;;;;;334.17;79.57;;;;;;;;;;5117910;28;20451;-74
2022/02/15 02:38:29;;;;;;;337.02;84.10;;;;;;;;;;5118756;28;20478;-74
2022/02/15 02:40:57;;;;;;;345.97;83.20;;;;;;;;;;5118426;28;20546;-74
2022/02/15 02:43:28;;;;;;;344.87;82.40;;;;;;;;;;5117952;28;20470;-74
2022/02/15 02:45:56;;;;;;;343.43;83.97;;;;;;;;;;5118574;28;20453;-73
2022/02/15 02:48:24;;;;;;;343.57;83.57;;;;;;;;;;5118843;28;20443;-74
2022/02/15 02:50:52;;;;;;;345.83;85.67;;;;;;;;;;5118337;28;20515;-74
2022/02/15 02:53:21;;;;;;;342.60;83.30;;;;;;;;;;5118691;28;20886;-74
2022/02/15 02:55:50;;;;;;;347.60;86.00;;;;;;;;;;5118046;28;20447;-75
2022/02/15 02:58:21;;;;;;;339.00;81.90;;;;;;;;;;5116980;28;20493;-73
2022/02/15 03:00:49;;;;;;;345.57;85.23;;;;;;;;;;5118899;28;20490;-74
2022/02/15 03:03:17;;;;;;;345.10;86.13;;;;;;;;;;5116004;28;20465;-74
2022/02/15 03:05:46;;;;;;;339.67;81.73;;;;;;;;;;5118156;28;20508;-75
2022/02/15 03:08:13;;;;;;;345.77;85.43;;;;;;;;;;5117745;28;20459;-74
2022/02/15 03:10:41;;;;;;;345.00;85.57;;;;;;;;;;5117517;28;20454;-74
2022/02/15 03:13:13;;;;;;;343.20;86.50;;;;;;;;;;5119266;28;20456;-74
2022/02/15 03:15:41;;;;;;;337.03;81.70;;;;;;;;;;5118304;28;20447;-74
2022/02/15 03:18:09;;;;;;;344.07;84.20;;;;;;;;;;5117545;28;20487;-74
2022/02/15 03:20:37;;;;;;;340.37;84.50;;;;;;;;;;5117568;28;20455;-74
2022/02/15 03:23:05;;;;;;;342.60;83.93;;;;;;;;;;5117705;28;20458;-74
2022/02/15 03:25:33;;;;;;;349.60;85.67;;;;;;;;;;5118409;28;20473;-74
2022/02/15 03:28:01;;;;;;;342.37;83.63;;;;;;;;;;5118554;28;20932;-74
2022/02/15 03:30:30;;;;;;;345.10;85.00;;;;;;;;;;5118111;28;20517;-74
2022/02/15 03:32:59;;;;;;;343.27;86.30;;;;;;;;;;5119280;28;20450;-73
2022/02/15 03:35:26;;;;;;;342.37;84.53;;;;;;;;;;5116932;28;20537;-74
2022/02/15 03:37:54;;;;;;;341.23;84.47;;;;;;;;;;5120021;28;20458;-74
2022/02/15 03:40:22;;;;;;;353.80;90.63;;;;;;;;;;5121635;28;20523;-74
2022/02/15 03:43:07;;;;;;;341.10;82.97;;;;;;;;;;5121508;28;20792;-73
2022/02/15 03:45:37;;;;;;;344.10;85.37;;;;;;;;;;5122450;28;20506;-74
2022/02/15 03:48:07;;;;;;;342.60;86.30;;;;;;;;;;5121178;28;20455;-73
2022/02/15 03:50:35;;;;;;;339.07;83.70;;;;;;;;;;5121139;28;20474;-74
2022/02/15 03:53:06;;;;;;;340.37;83.67;;;;;;;;;;5113465;28;20450;-74
2022/02/15 03:55:35;;;;;;;347.37;85.50;;;;;;;;;;5111866;28;20553;-74
2022/02/15 03:58:03;;;;;;;342.37;85.53;;;;;;;;;;5115202;28;20462;-74
2022/02/15 04:00:34;;;;;;;339.50;85.13;;;;;;;;;;5118686;28;20443;-74
2022/02/15 04:03:09;;;;;;;341.50;84.43;;;;;;;;;;5113315;28;20457;-74
2022/02/15 04:05:37;;;;;;;348.60;89.30;;;;;;;;;;5111577;28;20491;-74
2022/02/15 04:08:06;;;;;;;343.63;82.60;;;;;;;;;;5109204;28;20947;-73
2022/02/15 04:10:34;;;;;;;345.80;84.40;;;;;;;;;;5118586;28;20454;-74
2022/02/15 04:13:02;;;;;;;342.07;84.57;;;;;;;;;;5117290;28;20459;-74
2022/02/15 04:15:31;;;;;;;352.03;91.23;;;;;;;;;;5110777;28;20447;-74
2022/02/15 04:18:01;;;;;;;343.17;87.97;;;;;;;;;;5113215;28;20444;-75
2022/02/15 04:20:30;;;;;;;346.30;88.10;;;;;;;;;;5120951;28;20514;-74
2022/02/15 04:23:06;;;;;;;344.50;84.80;;;;;;;;;;5117190;28;20921;-74
2022/02/15 04:25:34;;;;;;;338.67;82.50;;;;;;;;;;5121477;28;20446;-73
2022/02/15 04:28:06;;;;;;;344.37;86.00;;;;;;;;;;5120627;28;20537;-74
2022/02/15 04:30:38;;;;;;;337.17;83.77;;;;;;;;;;5120081;28;20541;-74
2022/02/15 04:33:11;;;;;;;347.43;85.60;;;;;;;;;;5120184;28;20467;-74
2022/02/15 04:35:43;;;;;;;345.47;89.60;;;;;;;;;;5117213;28;20460;-74
2022/02/15 04:38:12;;;;;;;344.37;87.03;;;;;;;;;;5120017;28;20729;-75
2022/02/15 04:40:41;;;;;;;335.97;80.87;;;;;;;;;;5118136;28;20881;-74
2022/02/15 04:43:09;;;;;;;337.00;82.67;;;;;;;;;;5121299;28;20455;-74
2022/02/15 04:45:37;;;;;;;343.23;82.77;;;;;;;;;;5118381;28;20446;-73
2022/02/15 04:48:06;;;;;;;342.67;82.83;;;;;;;;;;5120417;28;20493;-74
2022/02/15 04:50:33;;;;;;;332.23;78.57;;;;;;;;;;5121385;28;20866;-73
2022/02/15 04:53:05;;;;;;;341.13;84.93;;;;;;;;;;5120084;28;20469;-73
2022/02/15 04:55:33;;;;;;;339.20;83.73;;;;;;;;;;5119944;28;20492;-73
2022/02/15 04:58:02;;;;;;;336.87;81.60;;;;;;;;;;5120904;27;20450;-73
2022/02/15 05:00:30;;;;;;;338.67;84.07;;;;;;;;;;5120145;28;20474;-73
2022/02/15 05:02:58;;;;;;;337.00;81.97;;;;;;;;;;5120948;28;20467;-74
2022/02/15 05:05:26;;;;;;;337.07;83.77;;;;;;;;;;5120380;28;20482;-73
2022/02/15 05:07:55;;;;;;;339.47;81.87;;;;;;;;;;5119407;28;20451;-73
2022/02/15 05:10:25;;;;;;;345.47;86.03;;;;;;;;;;5120167;28;20443;-74
2022/02/15 05:12:52;;;;;;;344.30;85.17;;;;;;;;;;5118578;28;20454;-73
2022/02/15 05:15:23;;;;;;;339.10;83.47;;;;;;;;;;5115822;28;20906;-73
2022/02/15 05:17:51;;;;;;;333.83;81.30;;;;;;;;;;5119692;28;20800;-74
2022/02/15 05:20:19;;;;;;;340.67;83.53;;;;;;;;;;5118504;28;21055;-73
2022/02/15 05:22:57;;;;;;;339.60;85.40;;;;;;;;;;5119607;28;20455;-74
2022/02/15 05:25:29;;;;;;;334.37;80.23;;;;;;;;;;5115677;28;20450;-73
2022/02/15 05:27:58;;;;;;;341.57;87.13;;;;;;;;;;5119287;28;20506;-74
2022/02/15 05:30:29;;;;;;;338.50;81.70;;;;;;;;;;5120114;28;20492;-74
2022/02/15 05:33:01;;;;;;;336.70;85.97;;;;;;;;;;5119321;28;20533;-72
2022/02/15 05:35:29;;;;;;;340.80;84.57;;;;;;;;;;5116596;28;20858;-75
2022/02/15 05:37:57;;;;;;;337.87;82.80;;;;;;;;;;5120072;28;20565;-73
2022/02/15 05:40:29;;;;;;;342.43;85.93;;;;;;;;;;5119306;28;20471;-74
2022/02/15 05:42:57;;;;;;;335.93;82.53;;;;;;;;;;5119927;28;20419;-74
2022/02/15 05:45:27;;;;;;;332.47;78.57;;;;;;;;;;5119414;28;20683;-74
2022/02/15 05:47:55;;;;;;;345.47;90.20;;;;;;;;;;5118582;28;20753;-74
2022/02/15 05:53:10;;;;;;;340.97;82.50;;;;;;;;;;5114630;28;20808;-73
2022/02/15 05:55:40;;;;;;;337.07;80.33;;;;;;;;;;5117788;28;20454;-74
2022/02/15 05:58:08;;;;;;;337.77;82.13;;;;;;;;;;5116492;28;20439;-74
2022/02/15 06:00:37;;;;;;;336.33;79.90;;;;;;;;;;5118750;28;20481;-74
2022/02/15 06:04:09;;;;;;;340.00;83.23;;;;;;;;;;5118369;28;20537;-74
2022/02/15 06:05:53;;;;;;;340.40;82.90;;;;;;;;;;5119062;28;20447;-74
2022/02/15 06:08:21;;;;;;;336.30;80.07;;;;;;;;;;5119069;28;20443;-74
2022/02/15 06:10:51;;;;;;;337.77;80.70;;;;;;;;;;5118821;28;20451;-74
2022/02/15 06:13:19;;;;;;;332.37;81.67;;;;;;;;;;5118833;28;20512;-74
2022/02/15 06:15:50;;;;;;;332.60;77.93;;;;;;;;;;5116646;28;20557;-74
2022/02/15 06:18:18;;;;;;;339.20;88.13;;;;;;;;;;5119328;28;20452;-74
2022/02/15 06:20:45;;;;;;;328.70;80.77;;;;;;;;;;5117140;28;20585;-73
2022/02/15 06:23:14;;;;;;;335.13;82.03;;;;;;;;;;5117332;28;20723;-73
2022/02/15 06:25:42;;;;;;;337.47;82.87;;;;;;;;;;5118230;28;20439;-74
2022/02/15 06:28:17;;;;;;;336.00;81.80;;;;;;;;;;5117674;28;20524;-74
2022/02/15 06:30:46;;;;;;;338.27;80.57;;;;;;;;;;5116682;28;20449;-74
2022/02/15 06:33:14;;;;;;;338.93;82.40;;;;;;;;;;5117790;28;20636;-74
2022/02/15 06:35:46;;;;;;;343.73;86.57;;;;;;;;;;5116294;28;20458;-74
2022/02/15 06:38:15;;;;;;;336.83;82.30;;;;;;;;;;5118175;28;20716;-74
2022/02/15 06:40:44;;;;;;;331.97;85.83;;;;;;;;;;5116465;28;20482;-73
2022/02/15 06:43:23;;;;;;;337.00;88.17;;;;;;;;;;5117374;28;20443;-74
2022/02/15 06:45:54;;;;;;;342.30;86.67;;;;;;;;;;5115776;27;20557;-75
2022/02/15 06:48:23;;;;;;;332.97;83.27;;;;;;;;;;5115861;28;21065;-75
2022/02/15 06:50:54;;;;;;;337.47;88.87;;;;;;;;;;5117114;28;20792;-73
2022/02/15 06:53:22;;;;;;;340.93;85.57;;;;;;;;;;5115479;28;20461;-74
2022/02/15 06:55:50;;;;;;;330.30;82.07;;;;;;;;;;5115909;28;20486;-73
2022/02/15 06:58:19;;;;;;;334.30;83.80;;;;;;;;;;5115669;28;20864;-73
2022/02/15 07:00:47;;;;;;;338.07;83.97;;;;;;;;;;5115089;28;21164;-74
2022/02/15 07:03:16;;;;;;;339.10;84.47;;;;;;;;;;5115375;28;20511;-74
2022/02/15 07:05:48;;;;;;;337.77;87.20;;;;;;;;;;5114621;28;20465;-74
2022/02/15 07:08:16;;;;;;;344.57;87.00;;;;;;;;;;5118060;28;20470;-74
2022/02/15 07:10:52;;;;;;;363.77;97.13;;;;;;;;;;5119983;28;20894;-74
2022/02/15 07:13:25;;;;;;;334.47;82.43;;;;;;;;;;5121266;28;20470;-74
2022/02/15 07:15:58;;;;;;;344.87;86.73;;;;;;;;;;5120456;28;20542;-75
2022/02/15 07:18:53;;;;;;;352.53;94.33;;;;;;;;;;5110185;28;20847;-75
2022/02/15 07:21:26;;;;;;;343.87;86.03;;;;;;;;;;5111897;28;20465;-74
2022/02/15 07:23:55;;;;;;;342.17;87.07;;;;;;;;;;5120675;28;20518;-73
2022/02/15 07:26:28;;;;;;;344.43;86.83;;;;;;;;;;5118430;28;20780;-75
2022/02/15 07:28:58;;;;;;;343.07;90.40;;;;;;;;;;5119952;28;20461;-74
2022/02/15 07:31:28;;;;;;;336.03;84.20;;;;;;;;;;5120076;28;20465;-75
2022/02/15 07:33:56;;;;;;;341.07;85.63;;;;;;;;;;5119149;28;20530;-73
2022/02/15 07:36:24;;;;;;;342.50;88.93;;;;;;;;;;5120008;28;20458;-73
2022/02/15 07:38:54;;;;;;;336.40;84.50;;;;;;;;;;5120433;28;20442;-74
2022/02/15 07:41:22;;;;;;;343.07;83.03;;;;;;;;;;5119373;28;20540;-73
2022/02/15 07:43:50;;;;;;;347.63;95.37;;;;;;;;;;5120312;28;20442;-73
2022/02/15 07:46:37;;;;;;;343.60;84.93;;;;;;;;;;5119042;28;20707;-75
2022/02/15 07:49:12;;;;;;;342.67;88.33;;;;;;;;;;5117645;28;20447;-75
2022/02/15 07:51:56;;;;;;;342.80;89.50;;;;;;;;;;5118960;28;20450;-74
2022/02/15 07:54:24;;;;;;;329.07;82.47;;;;;;;;;;5111043;28;20451;-73
2022/02/15 07:57:03;;;;;;;345.47;87.00;;;;;;;;;;5119886;28;20451;-72
2022/02/15 07:59:57;;;;;;;341.70;91.10;;;;;;;;;;5116916;28;20822;-75
2022/02/15 08:05:30;;;;;;;348.27;89.40;;;;;;;;;;5108448;28;20542;-74
2022/02/15 08:08:02;;;;;;;345.90;92.73;;;;;;;;;;5101543;28;20920;-73
2022/02/15 08:13:46;;;;;;;345.83;93.07;;;;;;;;;;5113327;28;20454;-73
2022/02/15 08:16:16;;;;;;;342.17;84.67;;;;;;;;;;5055060;28;20469;-75
2022/02/15 08:18:49;;;;;;;340.13;86.63;;;;;;;;;;5117851;28;20450;-74
2022/02/15 08:21:19;;;;;;;346.97;89.00;;;;;;;;;;5116903;28;20603;-75
2022/02/15 08:23:47;;;;;;;343.23;84.10;;;;;;;;;;5118313;28;21073;-73
2022/02/15 08:26:24;;;;;;;348.53;90.97;;;;;;;;;;5117450;28;20489;-73
2022/02/15 08:28:52;;;;;;;342.07;87.23;;;;;;;;;;5111632;28;20446;-74
2022/02/15 08:31:21;;;;;;;342.80;88.50;;;;;;;;;;5118320;28;21036;-73
2022/02/15 08:33:53;;;;;;;337.77;84.80;;;;;;;;;;5117960;28;20443;-73
2022/02/15 08:36:21;;;;;;;350.43;94.77;;;;;;;;;;5116655;28;20461;-75
2022/02/15 08:38:49;;;;;;;350.53;93.20;;;;;;;;;;5117407;28;20470;-75
2022/02/15 08:41:18;;;;;;;342.90;88.03;;;;;;;;;;5116829;28;20489;-72
2022/02/15 08:43:47;;;;;;;347.07;88.07;;;;;;;;;;5114763;28;20855;-75
2022/02/15 08:46:18;;;;;;;344.53;88.13;;;;;;;;;;5117590;28;20717;-74
2022/02/15 08:48:46;;;;;;;350.67;94.47;;;;;;;;;;5116311;28;20446;-75
2022/02/15 08:51:38;;;;;;;331.10;84.80;;;;;;;;;;5117363;28;20706;-74
2022/02/15 08:54:15;;;;;;;339.87;87.27;;;;;;;;;;5112409;28;20558;-74
2022/02/15 08:56:52;;;;;;;339.40;89.23;;;;;;;;;;5115501;28;20474;-74
2022/02/15 08:59:26;;;;;;;349.03;94.43;;;;;;;;;;5116633;28;20469;-75
2022/02/15 09:01:56;;;;;;;352.63;92.67;;;;;;;;;;5113405;28;20462;-73
2022/02/15 09:04:26;;;;;;;351.87;100.70;;;;;;;;;;5116336;28;20471;-75
2022/02/15 09:06:58;;;;;;;355.40;102.13;;;;;;;;;;5115345;28;20454;-75
2022/02/15 09:09:34;;;;;;;341.90;94.13;;;;;;;;;;5114550;28;20446;-74
2022/02/15 09:12:02;;;;;;;346.93;95.27;;;;;;;;;;5113756;28;20462;-74
2022/02/15 09:14:33;;;;;;;338.87;93.40;;;;;;;;;;5112612;28;20458;-73
2022/02/15 09:17:10;;;;;;;343.00;91.07;;;;;;;;;;5116189;28;20458;-75
2022/02/15 09:19:38;;;;;;;336.93;88.80;;;;;;;;;;5105700;28;20461;-74
2022/02/15 09:22:08;;;;;;;348.07;89.10;;;;;;;;;;5116725;28;20539;-75
2022/02/15 09:24:42;;;;;;;341.20;88.20;;;;;;;;;;5116136;28;20459;-77
2022/02/15 09:27:20;;;;;;;347.10;90.87;;;;;;;;;;5108323;28;20457;-73
2022/02/15 09:30:00;;;;;;;348.30;92.77;;;;;;;;;;5116363;28;20470;-74
2022/02/15 09:35:18;;;;;;;349.67;92.07;;;;;;;;;;5114879;28;20439;-73
2022/02/15 09:40:54;;;;;;;356.07;98.87;;;;;;;;;;5087912;28;20471;-74
2022/02/15 09:43:28;;;;;;;347.37;89.37;;;;;;;;;;5095938;28;20470;-74
2022/02/15 09:45:57;;;;;;;348.87;91.70;;;;;;;;;;5104779;27;20815;-74
2022/02/15 09:48:28;;;;;;;351.23;93.10;;;;;;;;;;5112733;28;20822;-76
2022/02/15 09:56:42;;;;;;;348.63;98.33;;;;;;;;;;5104341;27;20451;-74
2022/02/15 09:59:30;;;;;;;359.80;100.00;;;;;;;;;;5113110;28;20550;-74
2022/02/15 10:02:12;;;;;;;349.20;89.17;;;;;;;;;;5112534;27;20474;-73
2022/02/15 10:05:13;;;;;;;350.20;97.47;;;;;;;;;;5110414;28;20762;-74
2022/02/15 10:07:58;;;;;;;338.10;87.43;;;;;;;;;;5100020;28;20531;-74
2022/02/15 10:11:08;;;;;;;362.03;100.70;;;;;;;;;;5114461;28;20527;-75
2022/02/15 10:13:58;;;;;;;340.80;88.77;;;;;;;;;;5041160;28;20600;-74
2022/02/15 10:17:01;;;;;;;360.03;104.13;;;;;;;;;;5114075;28;20455;-74
2022/02/15 10:22:34;;;;;;;346.23;92.27;;;;;;;;;;5086395;28;20439;-76
2022/02/15 10:25:06;;;;;;;352.53;93.67;;;;;;;;;;5086705;28;20524;-75
2022/02/15 10:27:53;;;;;;;349.50;92.70;;;;;;;;;;5092418;28;20451;-75
2022/02/15 10:30:38;;;;;;;346.07;94.90;;;;;;;;;;5091657;28;20462;-76
2022/02/15 10:33:44;;;;;;;;;;;;;;;;;;;;;
2022/02/15 10:36:38;;;;;;;;;;;;;;;;;;;;;
2022/02/15 10:42:39;;;;;;;354.33;98.43;;;;;;;;;;5086130;28;20479;-74
2022/02/15 10:45:12;;;;;;;354.37;99.63;;;;;;;;;;5092449;28;20524;-74
2022/02/15 10:51:26;;;;;;;351.27;92.23;;;;;;;;;;5082638;28;20436;-76
2022/02/15 10:56:52;;;;;;;348.87;91.67;;;;;;;;;;5107266;28;20782;-76
2022/02/15 10:59:30;;;;;;;373.80;107.17;;;;;;;;;;5118224;28;20453;-76
2022/02/15 11:02:26;;;;;;;352.17;96.33;;;;;;;;;;5096489;28;20578;-75
2022/02/15 11:05:16;;;;;;;360.37;102.37;;;;;;;;;;5105864;28;20543;-74
2022/02/15 11:07:47;;;;;;;356.20;100.00;;;;;;;;;;5113402;28;20527;-73
2022/02/15 11:10:30;;;;;;;354.20;96.50;;;;;;;;;;5100870;28;20457;-72
2022/02/15 11:13:06;;;;;;;364.93;105.33;;;;;;;;;;5110019;28;20726;-74
2022/02/15 11:15:38;;;;;;;361.53;98.93;;;;;;;;;;5106286;28;20465;-74
2022/02/15 11:18:19;;;;;;;356.33;98.13;;;;;;;;;;5111736;28;20455;-74
2022/02/15 11:20:54;;;;;;;353.47;95.00;;;;;;;;;;5111648;28;20631;-75
2022/02/15 11:23:31;;;;;;;353.43;102.60;;;;;;;;;;5111811;28;20466;-75
2022/02/15 11:29:48;;;;;;;;;;;;;;;;;;;;;
2022/02/15 11:32:42;;;;;;;362.33;99.00;;;;;;;;;;5092810;28;20854;-75
2022/02/15 11:38:02;;;;;;;355.83;96.30;;;;;;;;;;5091159;28;20441;-74
2022/02/15 11:40:54;;;;;;;354.07;99.50;;;;;;;;;;5104269;28;20465;-74
2022/02/15 11:43:33;;;;;;;368.37;104.87;;;;;;;;;;5105984;28;20450;-73
2022/02/15 11:46:01;;;;;;;360.97;100.93;;;;;;;;;;5111596;28;20462;-73
2022/02/15 11:48:42;;;;;;;356.93;102.93;;;;;;;;;;5113362;28;20458;-73
2022/02/15 11:51:35;;;;;;;352.70;94.17;;;;;;;;;;5111614;28;20457;-75
2022/02/15 11:54:18;;;;;;;355.13;99.87;;;;;;;;;;5099820;28;20457;-73
2022/02/15 11:56:47;;;;;;;351.57;94.53;;;;;;;;;;5118350;28;20527;-74
2022/02/15 11:59:19;;;;;;;351.67;97.47;;;;;;;;;;5118028;27;20913;-74
2022/02/15 12:01:56;;;;;;;349.70;93.53;;;;;;;;;;5118277;27;20547;-73
2022/02/15 12:04:29;;;;;;;359.33;104.50;;;;;;;;;;5108221;27;20773;-74
2022/02/15 12:07:07;;;;;;;348.57;92.87;;;;;;;;;;5094946;28;20548;-74
2022/02/15 12:09:38;;;;;;;345.30;91.03;;;;;;;;;;5079510;28;21014;-74
2022/02/15 12:12:11;;;;;;;341.93;89.27;;;;;;;;;;5111204;28;20496;-74
2022/02/15 12:14:43;;;;;;;357.90;93.70;;;;;;;;;;5108135;28;20466;-74
2022/02/15 12:17:42;;;;;;;355.30;98.60;;;;;;;;;;5113869;28;20512;-74
2022/02/15 12:23:15;;;;;;;348.57;91.27;;;;;;;;;;5074945;28;20463;-73
2022/02/15 12:25:49;;;;;;;348.87;96.30;;;;;;;;;;5110676;28;20466;-74
2022/02/15 12:28:23;;;;;;;343.50;88.30;;;;;;;;;;5110979;28;20799;-72
2022/02/15 12:33:43;;;;;;;358.27;100.93;;;;;;;;;;5114548;28;20454;-73
2022/02/15 12:36:18;;;;;;;351.47;97.53;;;;;;;;;;5110180;28;20519;-73
2022/02/15 12:38:49;;;;;;;355.10;98.80;;;;;;;;;;5096607;28;20459;-72
2022/02/15 12:41:20;;;;;;;349.23;94.13;;;;;;;;;;5113634;28;20509;-74
2022/02/15 12:43:49;;;;;;;358.90;103.23;;;;;;;;;;5115307;27;20443;-74
2022/02/15 12:46:20;;;;;;;350.23;95.00;;;;;;;;;;5115374;27;20855;-74
2022/02/15 12:48:52;;;;;;;358.20;99.33;;;;;;;;;;5114052;27;20765;-74
2022/02/15 12:51:30;;;;;;;346.70;95.60;;;;;;;;;;5097838;28;20455;-74
2022/02/15 12:53:59;;;;;;;357.00;99.00;;;;;;;;;;5116544;27;20470;-73
2022/02/15 12:56:29;;;;;;;365.60;109.20;;;;;;;;;;5115383;28;20454;-74
2022/02/15 12:59:02;;;;;;;350.63;101.82;;;;;;;;;;5114848;27;20285;-73
2022/02/15 13:01:43;;;;;;;363.17;102.37;;;;;;;;;;5092627;28;20237;-73
2022/02/15 13:04:26;;;;;;;364.00;109.13;;;;;;;;;;5097245;28;20469;-73
2022/02/15 13:07:04;;;;;;;362.23;96.90;;;;;;;;;;5111505;28;20569;-74
2022/02/15 13:09:31;;;;;;;365.10;106.80;;;;;;;;;;5107321;28;20459;-73
2022/02/15 13:12:03;;;;;;;357.17;97.23;;;;;;;;;;5100767;28;20497;-74
2022/02/15 13:14:31;;;;;;;351.27;93.23;;;;;;;;;;5092836;28;20520;-74
2022/02/15 13:17:02;;;;;;;365.00;100.57;;;;;;;;;;5113604;28;20463;-73
2022/02/15 13:19:36;;;;;;;355.27;101.13;;;;;;;;;;5113401;28;20712;-75
2022/02/15 13:22:25;;;;;;;360.43;95.80;;;;;;;;;;5113336;28;20486;-75
2022/02/15 13:24:56;;;;;;;339.93;87.20;;;;;;;;;;5108122;28;20447;-73
2022/02/15 13:27:35;;;;;;;353.07;94.90;;;;;;;;;;5108337;28;20913;-73
2022/02/15 13:30:16;;;;;;;361.53;102.83;;;;;;;;;;5112761;28;20909;-74
2022/02/15 13:32:46;;;;;;;354.67;97.63;;;;;;;;;;5115753;28;20443;-73
2022/02/15 13:35:19;;;;;;;346.33;95.57;;;;;;;;;;5112967;28;20452;-73
2022/02/15 13:37:49;;;;;;;354.73;98.07;;;;;;;;;;5115052;28;20451;-73
2022/02/15 13:40:20;;;;;;;357.77;92.40;;;;;;;;;;5113981;28;20508;-74
2022/02/15 13:42:52;;;;;;;348.47;91.60;;;;;;;;;;5111880;28;20497;-73
2022/02/15 13:45:25;;;;;;;355.57;98.67;;;;;;;;;;5114352;28;20451;-75
2022/02/15 13:47:56;;;;;;;359.30;97.07;;;;;;;;;;5110595;28;20579;-73
2022/02/15 13:50:25;;;;;;;360.07;101.10;;;;;;;;;;5109384;28;20462;-73
2022/02/15 13:52:56;;;;;;;353.10;97.67;;;;;;;;;;5106611;28;20443;-73
2022/02/15 13:55:29;;;;;;;355.50;97.57;;;;;;;;;;5099921;28;21281;-74
2022/02/15 13:58:02;;;;;;;354.83;98.37;;;;;;;;;;5094628;28;20466;-73
2022/02/15 14:00:31;;;;;;;355.33;96.03;;;;;;;;;;5095488;28;20531;-74
2022/02/15 14:03:08;;;;;;;348.90;97.47;;;;;;;;;;5095918;28;20919;-74
2022/02/15 14:05:42;;;;;;;360.43;103.93;;;;;;;;;;5105660;28;20454;-73
2022/02/15 14:08:13;;;;;;;364.47;104.57;;;;;;;;;;5105913;28;20463;-72
2022/02/15 14:10:58;;;;;;;362.43;106.73;;;;;;;;;;5108969;28;20443;-74
2022/02/15 14:13:27;;;;;;;347.77;93.27;;;;;;;;;;5080130;28;20570;-74
2022/02/15 14:16:29;;;;;;;349.47;98.77;;;;;;;;;;5106922;28;20478;-74
2022/02/15 14:19:08;;;;;;;341.43;92.90;;;;;;;;;;5109710;27;20557;-73
2022/02/15 14:21:38;;;;;;;375.20;114.97;;;;;;;;;;5127190;27;20547;-74
2022/02/15 14:24:06;;;;;;;363.30;103.50;;;;;;;;;;5123654;27;20458;-74
2022/02/15 14:29:37;;;;;;;368.50;108.17;;;;;;;;;;5101893;28;20464;-73
2022/02/15 14:32:11;;;;;;;355.97;99.67;;;;;;;;;;5110300;27;20449;-74
2022/02/15 14:34:50;;;;;;;356.37;101.47;;;;;;;;;;5110888;28;20499;-73
2022/02/15 14:37:37;;;;;;;358.87;104.93;;;;;;;;;;5103241;28;20538;-74
2022/02/15 14:40:22;;;;;;;359.53;103.47;;;;;;;;;;5111432;28;20442;-73
2022/02/15 14:46:10;;;;;;;363.23;107.30;;;;;;;;;;5110257;28;20946;-74
2022/02/15 14:48:40;;;;;;;351.50;94.33;;;;;;;;;;5114208;28;20454;-73
2022/02/15 14:51:20;;;;;;;350.33;96.87;;;;;;;;;;5109989;28;20446;-74
2022/02/15 14:53:49;;;;;;;355.30;102.57;;;;;;;;;;5096029;28;20470;-72
2022/02/15 14:56:32;;;;;;;357.10;101.10;;;;;;;;;;5110789;28;20574;-73
2022/02/15 14:59:05;;;;;;;350.70;100.87;;;;;;;;;;5112560;28;20467;-73
2022/02/15 15:04:30;;;;;;;358.60;104.97;;;;;;;;;;5107304;28;20442;-71
2022/02/15 15:06:58;;;;;;;367.33;108.07;;;;;;;;;;5111235;28;20439;-73
2022/02/15 15:09:32;;;;;;;352.83;99.90;;;;;;;;;;5076573;28;20555;-74
2022/02/15 15:12:11;;;;;;;358.47;103.73;;;;;;;;;;5111084;28;20563;-74
2022/02/15 15:14:41;;;;;;;362.50;105.60;;;;;;;;;;5112457;28;20493;-74
2022/02/15 15:17:11;;;;;;;358.57;97.67;;;;;;;;;;5110412;28;20455;-73
2022/02/15 15:19:40;;;;;;;365.33;103.23;;;;;;;;;;5112876;28;20770;-73
2022/02/15 15:22:11;;;;;;;357.37;99.17;;;;;;;;;;5110185;28;20509;-73
2022/02/15 15:24:43;;;;;;;358.07;105.33;;;;;;;;;;5111983;28;20561;-73
2022/02/15 15:27:14;;;;;;;360.40;99.20;;;;;;;;;;5109800;28;20455;-73
2022/02/15 15:29:45;;;;;;;356.17;100.20;;;;;;;;;;5097142;28;20494;-73
2022/02/15 15:32:15;;;;;;;362.43;103.13;;;;;;;;;;5114121;28;20566;-73